Time;durP1;ratioP1;P1;durP2;ratioP2;P2;SDS_P1;SDS_P2;PMS_P1;PMS_P2;Temp;Humidity;BMP_temperature;BMP_pressure;BME280_temperature;BME280_humidity;BME280_pressure;Samples;Min_cycle;Max_cycle;Signal;HPM_P1;HPM_P2
2022/08/20 00:00:56;;;;;;;12.02;5.45;;;19.10;99.90;;;;;;4995681;28;20488;-75
2022/08/20 00:03:35;;;;;;;10.40;5.05;;;19.10;99.90;;;;;;5012127;28;20040;-74
2022/08/20 00:06:07;;;;;;;12.07;5.10;;;19.10;99.90;;;;;;4995787;28;20073;-75
2022/08/20 00:08:37;;;;;;;12.00;4.65;;;19.10;99.90;;;;;;5011627;28;20048;-74
2022/08/20 00:11:05;;;;;;;14.25;4.97;;;19.10;99.90;;;;;;5028364;28;20500;-75
2022/08/20 00:13:35;;;;;;;13.90;5.72;;;19.10;99.90;;;;;;5013020;28;20057;-75
2022/08/20 00:16:05;;;;;;;11.45;4.80;;;19.10;99.90;;;;;;5012132;28;20048;-74
2022/08/20 00:18:31;;;;;;;11.20;5.13;;;19.10;99.90;;;;;;4992920;28;20039;-74
2022/08/20 00:21:08;;;;;;;14.52;4.78;;;19.00;99.90;;;;;;5011698;28;20041;-74
2022/08/20 00:23:40;;;;;;;17.17;5.25;;;19.00;99.90;;;;;;5011172;28;20050;-75
2022/08/20 00:26:08;;;;;;;14.05;4.93;;;19.00;99.90;;;;;;4991671;28;20042;-75
2022/08/20 00:28:37;;;;;;;13.45;5.15;;;18.90;99.90;;;;;;5022874;28;20483;-75
2022/08/20 00:31:08;;;;;;;11.93;5.07;;;18.90;99.90;;;;;;5018314;28;20462;-73
2022/08/20 00:33:38;;;;;;;14.05;5.25;;;18.90;99.90;;;;;;5030692;28;20068;-75
2022/08/20 00:36:09;;;;;;;10.90;4.63;;;18.90;99.90;;;;;;5031254;28;20040;-74
2022/08/20 00:38:41;;;;;;;11.52;4.70;;;18.80;99.90;;;;;;5032317;28;20053;-74
2022/08/20 00:41:11;;;;;;;11.85;4.75;;;18.80;99.90;;;;;;5031073;28;20405;-74
2022/08/20 00:43:42;;;;;;;15.82;5.03;;;18.80;99.90;;;;;;5014620;28;20399;-74
2022/08/20 00:46:37;;;;;;;12.45;4.72;;;18.80;99.90;;;;;;5014676;28;20053;-75
2022/08/20 00:49:18;;;;;;;13.40;4.70;;;18.80;99.90;;;;;;5046245;28;20041;-75
2022/08/20 00:51:52;;;;;;;19.17;5.95;;;18.80;99.90;;;;;;5030940;28;20045;-75
2022/08/20 00:54:28;;;;;;;14.90;6.03;;;18.80;99.90;;;;;;5030630;28;20052;-75
2022/08/20 00:57:16;;;;;;;14.63;4.70;;;18.80;99.90;;;;;;5047601;28;20407;-75
2022/08/20 00:59:42;;;;;;;13.23;4.40;;;18.70;99.90;;;;;;5014248;28;20064;-75
2022/08/20 01:02:16;;;;;;;13.32;4.93;;;18.70;99.90;;;;;;5030416;28;20099;-75
2022/08/20 01:04:48;;;;;;;11.55;4.82;;;18.70;99.90;;;;;;5014310;28;20044;-74
2022/08/20 01:07:19;;;;;;;12.75;4.20;;;18.70;99.90;;;;;;5042139;28;20034;-75
2022/08/20 01:09:46;;;;;;;11.55;4.10;;;19.00;99.90;;;;;;5023782;28;20084;-75
2022/08/20 01:12:13;;;;;;;10.95;4.45;;;18.60;99.90;;;;;;5030004;28;20045;-75
2022/08/20 01:14:44;;;;;;;14.88;4.60;;;18.20;99.90;;;;;;5031824;28;20525;-75
2022/08/20 01:17:16;;;;;;;13.05;4.28;;;18.60;99.90;;;;;;5030335;28;20048;-75
2022/08/20 01:20:05;;;;;;;12.48;4.40;;;18.60;99.90;;;;;;5031431;28;20041;-75
2022/08/20 01:25:46;;;;;;;10.23;3.97;;;18.60;99.90;;;;;;5029722;28;20041;-75
2022/08/20 01:28:28;;;;;;;12.52;4.60;;;18.60;99.90;;;;;;5030038;28;20403;-74
2022/08/20 01:30:55;;;;;;;11.90;4.50;;;18.60;99.90;;;;;;5031648;28;20352;-75
2022/08/20 01:33:22;;;;;;;13.40;4.15;;;18.50;99.90;;;;;;5030155;28;20095;-76
2022/08/20 01:35:49;;;;;;;12.95;4.40;;;18.50;99.90;;;;;;5031174;28;20095;-75
2022/08/20 01:38:19;;;;;;;11.85;4.30;;;18.50;99.90;;;;;;5030015;28;20037;-75
2022/08/20 01:41:07;;;;;;;13.75;4.38;;;18.50;99.90;;;;;;5029927;28;20084;-76
2022/08/20 01:43:34;;;;;;;15.82;4.88;;;18.50;99.90;;;;;;5030975;28;20545;-74
2022/08/20 01:46:00;;;;;;;13.57;4.63;;;18.50;99.90;;;;;;5013837;28;20045;-74
2022/08/20 01:48:26;;;;;;;12.88;4.18;;;18.50;99.90;;;;;;5046240;28;20459;-75
2022/08/20 01:51:04;;;;;;;13.82;4.50;;;18.50;99.90;;;;;;5029907;28;20042;-74
2022/08/20 01:53:37;;;;;;;12.05;4.43;;;18.40;99.90;;;;;;5030696;28;20033;-75
2022/08/20 01:56:06;;;;;;;12.38;4.35;;;18.30;99.90;;;;;;5029975;28;20049;-75
2022/08/20 01:58:35;;;;;;;19.23;5.13;;;18.30;99.90;;;;;;5030667;28;20500;-75
2022/08/20 02:01:01;;;;;;;16.65;5.07;;;18.30;99.90;;;;;;5030208;28;20377;-74
2022/08/20 02:03:30;;;;;;;12.38;4.10;;;18.30;99.90;;;;;;5029522;28;20125;-75
2022/08/20 02:06:02;;;;;;;13.68;4.95;;;18.20;99.90;;;;;;5030861;28;20037;-75
2022/08/20 02:08:32;;;;;;;13.65;4.50;;;18.20;99.90;;;;;;5029877;28;20116;-75
2022/08/20 02:11:01;;;;;;;11.57;4.32;;;18.40;99.90;;;;;;5013420;28;20081;-76
2022/08/20 02:13:27;;;;;;;16.52;4.97;;;18.20;99.90;;;;;;5012622;28;20377;-75
2022/08/20 02:15:53;;;;;;;13.35;4.22;;;18.20;99.90;;;;;;5029273;28;20041;-76
2022/08/20 02:18:24;;;;;;;13.48;4.63;;;18.20;99.90;;;;;;5029228;28;20044;-75
2022/08/20 02:20:51;;;;;;;13.48;4.25;;;18.10;99.90;;;;;;5012948;28;20038;-75
2022/08/20 02:23:17;;;;;;;16.77;4.53;;;18.00;99.90;;;;;;4996390;28;20049;-74
2022/08/20 02:25:46;;;;;;;15.70;5.03;;;18.10;99.90;;;;;;5030314;28;20334;-74
2022/08/20 02:28:18;;;;;;;12.82;5.05;;;18.10;99.90;;;;;;5029143;28;20041;-74
2022/08/20 02:31:05;;;;;;;13.05;4.00;;;18.00;99.90;;;;;;5012755;28;20124;-76
2022/08/20 02:33:31;;;;;;;11.43;4.30;;;18.00;99.90;;;;;;5029262;28;20523;-75
2022/08/20 02:36:00;;;;;;;11.05;4.53;;;18.00;99.90;;;;;;5013094;28;20045;-74
2022/08/20 02:38:29;;;;;;;13.13;4.80;;;17.90;99.90;;;;;;5028972;28;20037;-74
2022/08/20 02:40:55;;;;;;;12.32;4.03;;;18.10;99.90;;;;;;5012319;28;20076;-75
2022/08/20 02:43:21;;;;;;;12.98;4.78;;;17.80;99.90;;;;;;5028552;28;20511;-74
2022/08/20 02:45:47;;;;;;;10.90;4.07;;;17.90;99.90;;;;;;5012025;28;20123;-76
2022/08/20 02:48:19;;;;;;;10.25;4.22;;;18.00;99.90;;;;;;5028805;28;20463;-76
2022/08/20 02:50:53;;;;;;;11.82;4.55;;;17.80;99.90;;;;;;5028595;28;20435;-76
2022/08/20 02:53:19;;;;;;;13.77;5.00;;;18.20;99.90;;;;;;5028823;28;20131;-74
2022/08/20 02:55:45;;;;;;;11.10;4.15;;;17.80;99.90;;;;;;5012241;28;20481;-74
2022/08/20 02:58:11;;;;;;;11.23;4.60;;;17.80;99.90;;;;;;5028386;28;20052;-74
2022/08/20 03:00:38;;;;;;;12.00;4.40;;;17.70;99.90;;;;;;5028497;28;20128;-75
2022/08/20 03:03:04;;;;;;;11.82;4.55;;;17.70;99.90;;;;;;5028233;28;20049;-76
2022/08/20 03:05:30;;;;;;;14.43;4.60;;;17.70;99.90;;;;;;5028251;28;20041;-74
2022/08/20 03:07:59;;;;;;;13.93;4.72;;;17.70;99.90;;;;;;5029359;28;20048;-75
2022/08/20 03:10:33;;;;;;;11.73;4.57;;;17.20;99.90;;;;;;5012391;28;20038;-76
2022/08/20 03:13:04;;;;;;;10.80;4.30;;;17.60;99.90;;;;;;5027369;28;20488;-75
2022/08/20 03:15:33;;;;;;;15.00;4.53;;;17.50;99.90;;;;;;5028590;28;20045;-75
2022/08/20 03:17:59;;;;;;;14.90;4.45;;;17.50;99.90;;;;;;5011814;28;20492;-76
2022/08/20 03:20:26;;;;;;;11.57;3.75;;;17.40;99.90;;;;;;5028256;28;20038;-75
2022/08/20 03:22:57;;;;;;;13.07;4.30;;;17.60;99.90;;;;;;5011532;28;20045;-75
2022/08/20 03:25:23;;;;;;;11.75;3.85;;;17.40;99.90;;;;;;5029529;28;20407;-74
2022/08/20 03:27:49;;;;;;;10.13;3.70;;;17.40;99.90;;;;;;5027923;28;20033;-76
2022/08/20 03:30:16;;;;;;;15.00;3.70;;;17.30;99.90;;;;;;5028309;28;20044;-75
2022/08/20 03:32:46;;;;;;;10.90;3.58;;;17.30;99.90;;;;;;5028142;28;20057;-74
2022/08/20 03:35:22;;;;;;;11.57;3.92;;;17.20;99.90;;;;;;5029372;28;20116;-75
2022/08/20 03:37:49;;;;;;;13.23;3.33;;;17.20;99.90;;;;;;5011354;28;20041;-74
2022/08/20 03:40:23;;;;;;;13.10;3.70;;;17.20;99.90;;;;;;5011397;28;20057;-74
2022/08/20 03:42:51;;;;;;;10.15;3.28;;;17.10;99.90;;;;;;5029181;28;20048;-74
2022/08/20 03:45:44;;;;;;;13.13;3.50;;;17.00;99.90;;;;;;5027921;28;20038;-75
2022/08/20 03:48:17;;;;;;;11.10;3.20;;;17.10;99.90;;;;;;5029050;28;20045;-75
2022/08/20 03:50:45;;;;;;;13.38;3.50;;;17.00;99.90;;;;;;5029393;28;20689;-74
2022/08/20 03:53:12;;;;;;;12.75;3.05;;;17.00;99.90;;;;;;5029300;28;20053;-75
2022/08/20 03:55:45;;;;;;;12.57;3.03;;;17.00;99.90;;;;;;5029506;28;20543;-75
2022/08/20 03:58:18;;;;;;;10.20;3.03;;;17.00;99.90;;;;;;5027997;28;20049;-75
2022/08/20 04:00:46;;;;;;;;;;;17.00;99.90;;;;;;5027760;28;20049;-74
2022/08/20 04:03:16;;;;;;;11.25;2.78;;;17.00;99.90;;;;;;5029035;28;19944;-76
2022/08/20 04:05:43;;;;;;;12.07;3.05;;;17.00;99.90;;;;;;5027794;28;20056;-75
2022/08/20 04:08:15;;;;;;;12.27;3.17;;;17.00;99.90;;;;;;5011176;28;20049;-75
2022/08/20 04:10:42;;;;;;;9.13;2.75;;;17.10;99.90;;;;;;5011323;28;20116;-74
2022/08/20 04:13:28;;;;;;;12.27;2.88;;;17.00;99.90;;;;;;5029086;28;20045;-75
2022/08/20 04:16:00;;;;;;;11.15;2.60;;;17.00;99.90;;;;;;5028888;28;20124;-76
2022/08/20 04:18:47;;;;;;;11.13;3.00;;;17.00;99.90;;;;;;4994744;28;20053;-76
2022/08/20 04:21:18;;;;;;;11.35;2.88;;;17.00;99.90;;;;;;5027562;28;20061;-74
2022/08/20 04:23:44;;;;;;;8.73;2.50;;;17.00;99.90;;;;;;5013302;28;20091;-77
2022/08/20 04:26:13;;;;;;;11.30;2.67;;;17.00;99.90;;;;;;5032898;28;20515;-75
2022/08/20 04:28:38;;;;;;;9.90;2.70;;;16.90;99.90;;;;;;5014993;28;20189;-74
2022/08/20 04:31:04;;;;;;;9.90;2.97;;;17.00;99.90;;;;;;5032960;28;20158;-74
2022/08/20 04:33:33;;;;;;;9.45;2.50;;;17.00;99.90;;;;;;5014739;28;20033;-75
2022/08/20 04:36:01;;;;;;;9.35;2.35;;;16.90;99.90;;;;;;5031319;28;20545;-75
2022/08/20 04:38:30;;;;;;;10.50;2.40;;;17.00;99.90;;;;;;5031348;28;20038;-75
2022/08/20 04:40:59;;;;;;;10.57;2.40;;;17.00;99.90;;;;;;5032126;28;20131;-75
2022/08/20 04:43:34;;;;;;;11.35;2.90;;;17.00;99.90;;;;;;5030976;28;20133;-74
2022/08/20 04:46:04;;;;;;;9.25;2.58;;;17.00;99.90;;;;;;5032246;28;20183;-74
2022/08/20 04:48:31;;;;;;;12.02;2.95;;;17.00;99.90;;;;;;5047388;28;20040;-74
2022/08/20 04:50:58;;;;;;;11.57;2.63;;;17.00;99.90;;;;;;5030831;28;20495;-74
2022/08/20 04:53:28;;;;;;;12.13;2.42;;;17.00;99.90;;;;;;5032447;28;20045;-75
2022/08/20 04:55:56;;;;;;;11.50;2.47;;;15.90;99.90;;;;;;5032554;28;20037;-74
2022/08/20 04:58:30;;;;;;;9.60;2.40;;;17.00;99.90;;;;;;5031816;28;20442;-74
2022/08/20 05:00:59;;;;;;;12.30;3.03;;;17.00;99.90;;;;;;5030422;28;20041;-74
2022/08/20 05:03:25;;;;;;;10.48;2.75;;;17.00;99.90;;;;;;5030732;28;20499;-74
2022/08/20 05:05:52;;;;;;;10.02;2.67;;;17.00;99.90;;;;;;5047580;28;20496;-75
2022/08/20 05:08:21;;;;;;;12.30;2.60;;;16.90;99.90;;;;;;5031571;28;20116;-74
2022/08/20 05:10:48;;;;;;;8.52;2.42;;;;;;;;;;5031000;28;20037;-74
2022/08/20 05:13:14;;;;;;;10.65;3.08;;;16.90;99.90;;;;;;5031623;28;20054;-75
2022/08/20 05:15:40;;;;;;;11.00;2.67;;;17.00;99.90;;;;;;5014531;28;20141;-75
2022/08/20 05:18:07;;;;;;;10.02;2.50;;;16.90;99.90;;;;;;5030524;28;20087;-75
2022/08/20 05:20:38;;;;;;;9.85;3.00;;;17.00;99.90;;;;;;5030616;28;20128;-74
2022/08/20 05:23:05;;;;;;;9.90;2.35;;;16.90;99.90;;;;;;5031207;28;20089;-76
2022/08/20 05:25:31;;;;;;;11.70;2.28;;;16.90;99.90;;;;;;5030341;28;20044;-75
2022/08/20 05:27:59;;;;;;;10.68;2.60;;;16.90;99.90;;;;;;5029822;28;20037;-74
2022/08/20 05:30:32;;;;;;;13.10;2.83;;;16.90;99.90;;;;;;5027210;28;20496;-75
2022/08/20 05:32:59;;;;;;;9.30;2.58;;;16.90;99.90;;;;;;5011490;28;20057;-75
2022/08/20 05:35:26;;;;;;;9.73;2.22;;;16.80;99.90;;;;;;5026429;28;20042;-74
2022/08/20 05:37:53;;;;;;;8.90;2.30;;;16.90;99.90;;;;;;5011891;28;20099;-75
2022/08/20 05:40:18;;;;;;;11.05;2.40;;;16.90;99.90;;;;;;5010214;28;20060;-75
2022/08/20 05:42:44;;;;;;;9.85;2.72;;;16.90;99.90;;;;;;5011563;28;20050;-74
2022/08/20 05:45:10;;;;;;;10.32;2.67;;;16.80;99.90;;;;;;5012980;28;20403;-75
2022/08/20 05:47:39;;;;;;;12.60;2.70;;;16.80;99.90;;;;;;5031113;28;20530;-75
2022/08/20 05:50:06;;;;;;;9.95;2.25;;;16.90;99.90;;;;;;5013270;28;20041;-75
2022/08/20 05:52:32;;;;;;;10.50;2.30;;;16.90;99.90;;;;;;5030005;28;20049;-75
2022/08/20 05:54:58;;;;;;;9.90;2.60;;;16.50;99.90;;;;;;4996915;28;20067;-75
2022/08/20 05:57:24;;;;;;;9.90;2.40;;;16.90;99.90;;;;;;4997027;28;20045;-75
2022/08/20 05:59:50;;;;;;;11.25;2.22;;;17.00;99.90;;;;;;5013270;28;20041;-74
2022/08/20 06:05:00;;;;;;;14.35;2.92;;;17.20;99.90;;;;;;5029965;28;20041;-75
2022/08/20 06:07:28;;;;;;;9.45;2.22;;;17.30;99.90;;;;;;5030771;28;20041;-74
2022/08/20 06:09:54;;;;;;;12.98;2.33;;;17.30;99.90;;;;;;5046153;28;20046;-74
2022/08/20 06:12:19;;;;;;;13.13;2.60;;;17.40;99.90;;;;;;5029801;28;20053;-75
2022/08/20 06:14:46;;;;;;;10.02;2.25;;;17.60;99.90;;;;;;5046070;28;20053;-75
2022/08/20 06:17:17;;;;;;;11.13;2.60;;;17.60;99.90;;;;;;5029358;28;20045;-75
2022/08/20 06:19:44;;;;;;;8.30;2.22;;;17.70;99.90;;;;;;5030667;28;20034;-74
2022/08/20 06:22:11;;;;;;;8.50;2.38;;;17.80;99.90;;;;;;5029241;28;20065;-74
2022/08/20 06:24:37;;;;;;;8.60;2.25;;;17.90;99.90;;;;;;5030718;28;20049;-74
2022/08/20 06:27:04;;;;;;;11.05;2.40;;;18.00;99.90;;;;;;5045956;28;20044;-74
2022/08/20 06:29:32;;;;;;;11.20;2.80;;;18.10;99.90;;;;;;5012569;28;20092;-74
2022/08/20 06:31:58;;;;;;;11.05;2.67;;;18.10;99.90;;;;;;5029120;28;20081;-74
2022/08/20 06:34:27;;;;;;;9.80;2.72;;;18.10;99.90;;;;;;5012588;28;20124;-74
2022/08/20 06:36:53;;;;;;;9.88;2.60;;;18.20;99.90;;;;;;5012760;28;20346;-74
2022/08/20 06:39:20;;;;;;;10.85;2.45;;;18.20;99.90;;;;;;5028942;28;20057;-74
2022/08/20 06:41:46;;;;;;;8.73;2.30;;;18.30;99.90;;;;;;5028919;28;20073;-74
2022/08/20 06:44:13;;;;;;;9.25;2.20;;;17.90;99.90;;;;;;5030323;28;20076;-75
2022/08/20 06:46:39;;;;;;;8.35;2.40;;;18.40;99.90;;;;;;5029725;28;20043;-74
2022/08/20 06:49:06;;;;;;;9.65;2.30;;;18.50;99.90;;;;;;5028654;28;20045;-75
2022/08/20 06:51:33;;;;;;;12.25;2.70;;;18.60;99.90;;;;;;5028946;28;20283;-75
2022/08/20 06:53:59;;;;;;;13.40;2.80;;;18.70;99.90;;;;;;5028786;28;20111;-76
2022/08/20 06:56:27;;;;;;;8.65;2.08;;;18.80;99.90;;;;;;5028905;28;20107;-75
2022/08/20 06:58:53;;;;;;;10.30;2.13;;;18.90;99.90;;;;;;5028689;28;20053;-74
2022/08/20 07:01:19;;;;;;;8.35;2.00;;;19.00;99.90;;;;;;5028610;28;20046;-74
2022/08/20 07:03:47;;;;;;;8.57;2.28;;;19.00;99.90;;;;;;5028813;28;20065;-75
2022/08/20 07:06:14;;;;;;;8.57;1.70;;;19.10;99.90;;;;;;5028574;28;20048;-75
2022/08/20 07:08:41;;;;;;;12.05;2.38;;;19.20;99.90;;;;;;5028486;28;20038;-75
2022/08/20 07:11:08;;;;;;;9.02;1.90;;;19.20;99.90;;;;;;5029623;28;20052;-74
2022/08/20 07:13:36;;;;;;;9.68;2.10;;;19.30;99.90;;;;;;4995605;28;20037;-75
2022/08/20 07:16:05;;;;;;;9.15;1.83;;;19.30;99.90;;;;;;5028805;28;20060;-74
2022/08/20 07:18:31;;;;;;;9.93;1.98;;;19.40;99.90;;;;;;5029449;28;20383;-75
2022/08/20 07:20:57;;;;;;;7.60;2.03;;;19.40;99.90;;;;;;5028442;28;20033;-75
2022/08/20 07:23:25;;;;;;;5.45;1.30;;;19.50;99.90;;;;;;5028232;28;20120;-74
2022/08/20 07:25:51;;;;;;;8.57;1.90;;;19.60;99.90;;;;;;5012204;28;20052;-74
2022/08/20 07:28:19;;;;;;;8.20;1.85;;;19.70;99.90;;;;;;5028184;28;20435;-75
2022/08/20 07:33:30;;;;;;;8.90;1.80;;;19.80;99.90;;;;;;5027879;28;20045;-74
2022/08/20 07:36:03;;;;;;;9.25;1.60;;;19.80;99.90;;;;;;5029709;28;20041;-74
2022/08/20 07:38:30;;;;;;;6.72;1.65;;;19.80;99.90;;;;;;5028493;28;20140;-76
2022/08/20 07:41:13;;;;;;;7.70;1.73;;;19.90;99.90;;;;;;5011599;28;20050;-75
2022/08/20 07:43:46;;;;;;;7.82;1.42;;;20.00;99.90;;;;;;5028214;28;20045;-75
2022/08/20 07:46:13;;;;;;;6.57;1.63;;;20.00;99.90;;;;;;4992065;28;20038;-74
2022/08/20 07:48:45;;;;;;;9.18;1.83;;;20.00;99.90;;;;;;5008491;28;20511;-75
2022/08/20 07:51:12;;;;;;;6.43;1.65;;;20.00;99.90;;;;;;4999393;28;20092;-74
2022/08/20 07:53:40;;;;;;;8.93;1.90;;;21.10;99.90;;;;;;4995389;28;20045;-76
2022/08/20 07:56:09;;;;;;;7.72;1.70;;;20.00;99.90;;;;;;5028372;28;20045;-75
2022/08/20 07:58:37;;;;;;;9.40;1.73;;;19.90;99.90;;;;;;5031125;28;20033;-75
2022/08/20 08:01:05;;;;;;;10.23;1.70;;;19.90;99.90;;;;;;5012638;28;20125;-75
2022/08/20 08:03:31;;;;;;;5.88;1.38;;;19.80;99.90;;;;;;5028731;28;20042;-75
2022/08/20 08:05:57;;;;;;;9.18;1.80;;;19.90;99.90;;;;;;5012363;28;20042;-75
2022/08/20 08:08:27;;;;;;;7.55;1.50;;;19.90;99.90;;;;;;5048289;28;20037;-74
2022/08/20 08:10:56;;;;;;;6.40;1.48;;;20.00;99.90;;;;;;5032801;28;20401;-76
2022/08/20 08:13:25;;;;;;;9.85;1.75;;;20.10;99.90;;;;;;5032979;28;20088;-75
2022/08/20 08:15:56;;;;;;;6.68;1.50;;;20.20;99.90;;;;;;5032971;28;20446;-74
2022/08/20 08:18:26;;;;;;;7.38;1.52;;;20.20;99.90;;;;;;5031312;28;20060;-75
2022/08/20 08:20:52;;;;;;;8.98;1.95;;;20.20;99.90;;;;;;5032114;28;20041;-74
2022/08/20 08:23:20;;;;;;;9.80;1.80;;;20.30;99.90;;;;;;5031366;28;20117;-75
2022/08/20 08:25:54;;;;;;;10.50;1.90;;;20.50;99.90;;;;;;5020244;28;20073;-76
2022/08/20 08:28:28;;;;;;;5.40;1.42;;;20.50;99.90;;;;;;5032648;28;20377;-75
2022/08/20 08:30:54;;;;;;;9.85;1.80;;;20.60;99.90;;;;;;4995493;28;20038;-76
2022/08/20 08:33:27;;;;;;;7.63;1.60;;;20.70;99.90;;;;;;5027934;28;20045;-75
2022/08/20 08:35:55;;;;;;;8.70;1.88;;;21.00;99.90;;;;;;5012757;28;20041;-74
2022/08/20 08:38:22;;;;;;;9.35;1.80;;;20.80;99.90;;;;;;5011087;28;20123;-74
2022/08/20 08:40:52;;;;;;;9.07;2.08;;;20.90;99.90;;;;;;5027769;28;20049;-75
2022/08/20 08:43:21;;;;;;;9.25;1.90;;;20.90;99.90;;;;;;5027537;28;20046;-75
2022/08/20 08:46:01;;;;;;;9.13;1.90;;;20.90;99.90;;;;;;5018614;28;20219;-75
2022/08/20 08:48:33;;;;;;;9.27;1.70;;;20.90;99.90;;;;;;5031131;28;20108;-76
2022/08/20 08:51:02;;;;;;;8.65;1.70;;;21.00;99.90;;;;;;5014720;28;20400;-75
2022/08/20 08:53:32;;;;;;;6.47;1.73;;;21.00;99.90;;;;;;5031830;28;20073;-75
2022/08/20 08:55:59;;;;;;;8.70;1.70;;;21.00;99.90;;;;;;5031402;28;20540;-75
2022/08/20 08:58:26;;;;;;;5.80;1.50;;;21.00;99.90;;;;;;5030856;28;20130;-75
2022/08/20 09:00:52;;;;;;;7.72;1.60;;;21.00;99.90;;;;;;5032252;28;20046;-75
2022/08/20 09:03:28;;;;;;;7.38;1.45;;;21.10;99.90;;;;;;5030528;28;20496;-76
2022/08/20 09:05:58;;;;;;;9.38;1.85;;;21.20;99.90;;;;;;5014862;28;20053;-76
2022/08/20 09:08:47;;;;;;;7.28;1.63;;;21.20;99.90;;;;;;5030518;28;20108;-76
2022/08/20 09:11:14;;;;;;;6.57;1.52;;;21.30;99.90;;;;;;5030648;28;20400;-75
2022/08/20 09:13:41;;;;;;;9.27;1.75;;;21.50;99.90;;;;;;5030599;28;20073;-74
2022/08/20 09:16:08;;;;;;;7.50;1.70;;;21.60;99.90;;;;;;5030748;28;20037;-76
2022/08/20 09:18:34;;;;;;;6.82;1.60;;;21.70;99.90;;;;;;5030037;28;20045;-76
2022/08/20 09:20:59;;;;;;;6.95;1.77;;;21.70;99.90;;;;;;5030777;28;20045;-75
2022/08/20 09:23:25;;;;;;;7.65;1.70;;;21.50;99.90;;;;;;5030174;28;20095;-75
2022/08/20 09:25:51;;;;;;;7.55;1.55;;;21.60;99.90;;;;;;5030381;28;20033;-76
2022/08/20 09:28:17;;;;;;;6.57;1.92;;;21.70;99.90;;;;;;5013986;28;20037;-75
2022/08/20 09:30:42;;;;;;;6.15;1.50;;;21.90;99.90;;;;;;5030621;28;20045;-75
2022/08/20 09:33:08;;;;;;;7.78;1.77;;;22.00;99.90;;;;;;5029883;28;20045;-75
2022/08/20 09:35:34;;;;;;;6.35;1.63;;;22.00;99.90;;;;;;5013640;28;20076;-75
2022/08/20 09:38:03;;;;;;;7.93;1.60;;;22.00;99.90;;;;;;5030328;28;20053;-76
2022/08/20 09:40:29;;;;;;;8.93;1.77;;;21.90;99.90;;;;;;5013717;28;20498;-75
2022/08/20 09:42:54;;;;;;;6.68;1.45;;;21.90;99.90;;;;;;5029701;28;20059;-76
2022/08/20 09:45:21;;;;;;;6.70;1.50;;;21.90;99.90;;;;;;5013377;28;20033;-75
2022/08/20 09:47:47;;;;;;;5.80;1.48;;;22.10;99.90;;;;;;5013463;28;20447;-75
2022/08/20 09:50:16;;;;;;;9.25;1.60;;;22.20;99.90;;;;;;5013623;28;20041;-75
2022/08/20 09:52:46;;;;;;;7.85;1.88;;;22.40;99.90;;;;;;5031645;28;20404;-76
2022/08/20 09:55:31;;;;;;;7.07;1.45;;;22.40;99.90;;;;;;5030288;28;20099;-75
2022/08/20 09:57:58;;;;;;;6.43;1.77;;;22.00;99.90;;;;;;5030777;28;20267;-75
2022/08/20 10:00:24;;;;;;;15.98;2.10;;;21.80;99.90;;;;;;5029954;28;20033;-75
2022/08/20 10:02:50;;;;;;;7.38;1.65;;;21.60;99.90;;;;;;5013001;28;20111;-75
2022/08/20 10:05:16;;;;;;;9.35;2.03;;;21.50;99.90;;;;;;5029854;28;20045;-75
2022/08/20 10:07:42;;;;;;;7.88;1.50;;;21.40;99.90;;;;;;5012987;28;20026;-75
2022/08/20 10:10:11;;;;;;;7.95;1.83;;;21.60;99.90;;;;;;5031277;28;20116;-76
2022/08/20 10:12:37;;;;;;;7.53;1.70;;;21.80;99.90;;;;;;5029619;28;20045;-75
2022/08/20 10:15:03;;;;;;;9.40;1.70;;;22.00;99.90;;;;;;5031301;28;20435;-75
2022/08/20 10:17:29;;;;;;;7.45;1.75;;;22.10;99.90;;;;;;5029673;28;20099;-75
2022/08/20 10:19:55;;;;;;;6.88;1.60;;;22.10;99.90;;;;;;5012993;28;20049;-76
2022/08/20 10:22:21;;;;;;;6.82;1.60;;;22.10;99.90;;;;;;5028971;28;20099;-75
2022/08/20 10:24:46;;;;;;;7.55;1.98;;;21.90;99.90;;;;;;5029635;28;20045;-75
2022/08/20 10:27:12;;;;;;;9.10;1.77;;;21.80;99.90;;;;;;5029332;28;20041;-75
2022/08/20 10:29:38;;;;;;;8.02;1.70;;;21.60;99.90;;;;;;5013033;28;20072;-76
2022/08/20 10:32:12;;;;;;;9.45;1.75;;;21.50;99.90;;;;;;5030401;28;20397;-76
2022/08/20 10:34:39;;;;;;;8.25;1.77;;;21.40;99.90;;;;;;5029368;28;20103;-75
2022/08/20 10:37:05;;;;;;;8.75;1.95;;;21.60;99.90;;;;;;5030591;28;20077;-76
2022/08/20 10:39:31;;;;;;;8.70;1.70;;;21.70;99.90;;;;;;5028715;28;20053;-75
2022/08/20 10:41:57;;;;;;;4.65;1.58;;;21.90;99.90;;;;;;5030524;28;20529;-75
2022/08/20 10:44:23;;;;;;;5.90;1.50;;;21.90;99.90;;;;;;5030461;28;20037;-76
2022/08/20 10:46:49;;;;;;;7.93;1.90;;;21.90;99.90;;;;;;5028733;28;20120;-75
2022/08/20 10:49:15;;;;;;;7.55;1.90;;;21.90;99.90;;;;;;5029007;28;20040;-75
2022/08/20 10:51:40;;;;;;;7.80;1.92;;;22.10;99.90;;;;;;5028574;28;20124;-76
2022/08/20 10:54:06;;;;;;;9.55;2.00;;;22.40;99.90;;;;;;5012405;28;20045;-75
2022/08/20 10:56:32;;;;;;;7.75;1.80;;;22.70;99.90;;;;;;5012614;28;20045;-75
2022/08/20 10:59:00;;;;;;;8.85;2.00;;;22.70;99.90;;;;;;5028649;28;20091;-76
2022/08/20 11:01:26;;;;;;;7.22;1.70;;;22.70;99.90;;;;;;5012410;28;20257;-74
2022/08/20 11:03:51;;;;;;;7.72;1.67;;;22.60;99.90;;;;;;5028564;28;20079;-76
2022/08/20 11:06:17;;;;;;;7.68;1.80;;;22.70;99.90;;;;;;5029058;28;20057;-75
2022/08/20 11:08:43;;;;;;;7.97;1.83;;;22.70;99.90;;;;;;5029862;28;20045;-75
2022/08/20 11:11:08;;;;;;;7.95;1.70;;;22.70;99.90;;;;;;5012344;28;20037;-75
2022/08/20 11:13:35;;;;;;;8.10;1.80;;;22.50;99.90;;;;;;5028589;28;20087;-76
2022/08/20 11:16:01;;;;;;;9.82;2.20;;;22.50;99.90;;;;;;5029070;28;20041;-75
2022/08/20 11:18:28;;;;;;;9.30;1.83;;;22.40;99.90;;;;;;5028313;28;20131;-74
2022/08/20 11:20:54;;;;;;;8.93;1.92;;;22.50;99.90;;;;;;5028722;28;20573;-76
2022/08/20 11:23:20;;;;;;;9.50;2.10;;;22.50;99.90;;;;;;5011940;28;20046;-76
2022/08/20 11:25:47;;;;;;;7.93;1.85;;;22.40;99.90;;;;;;5028674;28;20518;-76
2022/08/20 11:28:13;;;;;;;6.22;1.60;;;22.40;99.90;;;;;;5011382;28;20044;-75
2022/08/20 11:30:39;;;;;;;8.35;2.25;;;22.40;99.90;;;;;;5028522;28;20061;-75
2022/08/20 11:33:05;;;;;;;7.05;1.80;;;22.30;99.90;;;;;;5012874;28;20045;-75
2022/08/20 11:35:34;;;;;;;9.35;1.98;;;22.20;99.90;;;;;;5032765;28;20045;-76
2022/08/20 11:38:00;;;;;;;8.30;1.85;;;22.30;99.90;;;;;;5016136;28;20505;-75
2022/08/20 11:40:28;;;;;;;8.57;1.90;;;22.20;99.90;;;;;;5015628;28;20124;-75
2022/08/20 11:42:54;;;;;;;10.05;2.05;;;22.50;99.90;;;;;;5033771;28;20079;-75
2022/08/20 11:45:20;;;;;;;10.20;2.00;;;22.50;99.90;;;;;;5032245;28;20049;-76
2022/08/20 11:47:46;;;;;;;7.50;1.98;;;22.30;99.90;;;;;;5032528;28;20045;-75
2022/08/20 11:50:18;;;;;;;11.20;2.13;;;22.40;99.90;;;;;;5032536;28;20126;-75
2022/08/20 11:52:44;;;;;;;11.48;2.00;;;22.40;99.90;;;;;;5033493;28;20045;-76
2022/08/20 11:55:11;;;;;;;8.73;2.08;;;22.50;99.90;;;;;;5032245;28;20048;-75
2022/08/20 11:57:42;;;;;;;9.82;2.10;;;22.70;99.90;;;;;;5018648;28;20038;-76
2022/08/20 12:00:13;;;;;;;8.43;1.95;;;23.00;99.90;;;;;;5031949;28;20399;-75
2022/08/20 12:02:39;;;;;;;9.40;1.90;;;23.20;99.90;;;;;;4995703;28;20057;-75
2022/08/20 12:05:07;;;;;;;9.70;2.00;;;23.70;99.90;;;;;;5013564;28;20095;-75
2022/08/20 12:07:32;;;;;;;10.13;2.20;;;23.70;99.90;;;;;;5024381;28;20503;-75
2022/08/20 12:09:59;;;;;;;8.20;2.03;;;23.90;99.90;;;;;;5032060;28;20034;-75
2022/08/20 12:12:25;;;;;;;8.93;2.22;;;24.10;99.90;;;;;;5015181;28;20049;-76
2022/08/20 12:14:52;;;;;;;8.57;2.28;;;24.20;99.90;;;;;;5015304;28;20048;-75
2022/08/20 12:17:25;;;;;;;8.82;2.10;;;24.20;99.90;;;;;;5031795;28;20045;-75
2022/08/20 12:19:54;;;;;;;9.40;1.90;;;24.20;99.90;;;;;;5033245;28;20515;-75
2022/08/20 12:22:20;;;;;;;8.10;1.90;;;24.20;99.90;;;;;;5031783;28;20106;-75
2022/08/20 12:24:46;;;;;;;6.85;1.88;;;24.30;99.90;;;;;;5031711;28;20045;-76
2022/08/20 12:27:15;;;;;;;7.32;1.80;;;24.20;99.90;;;;;;5031566;28;20523;-76
2022/08/20 12:29:43;;;;;;;7.47;1.67;;;24.40;99.90;;;;;;5031498;28;20411;-75
2022/08/20 12:32:10;;;;;;;9.18;2.20;;;24.20;99.90;;;;;;5032307;28;20486;-75
2022/08/20 12:34:38;;;;;;;8.95;1.98;;;24.40;99.90;;;;;;5015095;28;20053;-76
2022/08/20 12:37:09;;;;;;;7.43;1.90;;;24.70;99.90;;;;;;5031391;28;20042;-74
2022/08/20 12:39:38;;;;;;;11.15;2.20;;;24.80;99.90;;;;;;5032751;28;20388;-75
2022/08/20 12:42:04;;;;;;;7.18;1.63;;;24.80;99.90;;;;;;5031278;28;20404;-76
2022/08/20 12:44:30;;;;;;;8.05;2.13;;;24.70;99.90;;;;;;5014204;28;20523;-74
2022/08/20 12:47:17;;;;;;;7.97;1.70;;;24.40;99.90;;;;;;5032284;28;20129;-75
2022/08/20 12:49:46;;;;;;;7.15;1.85;;;24.00;99.90;;;;;;5031142;28;20037;-75
2022/08/20 12:52:15;;;;;;;7.28;1.83;;;23.80;99.90;;;;;;5031091;28;20045;-76
2022/08/20 12:54:41;;;;;;;8.43;2.08;;;23.50;99.90;;;;;;4998934;28;20042;-74
2022/08/20 12:57:13;;;;;;;9.85;2.25;;;23.30;99.90;;;;;;5031025;28;20060;-76
2022/08/20 12:59:39;;;;;;;9.43;1.90;;;23.40;99.90;;;;;;5032659;28;20127;-76